createdAt,value
2018-04-27T00:01:50.909Z,7.94
2018-04-27T00:04:18.419Z,7.90
2018-04-27T00:06:45.891Z,7.90
2018-04-27T00:09:13.470Z,7.91
2018-04-27T00:11:41.002Z,7.94
2018-04-27T00:14:08.589Z,7.94
2018-04-27T00:16:36.084Z,7.83
2018-04-27T00:19:03.587Z,7.71
2018-04-27T00:21:31.132Z,7.65
2018-04-27T00:23:58.618Z,7.61
2018-04-27T00:26:26.146Z,7.66
2018-04-27T00:28:53.721Z,7.75
2018-04-27T00:31:21.306Z,7.82
2018-04-27T00:33:48.801Z,7.89
2018-04-27T00:36:16.297Z,7.96
2018-04-27T00:38:43.883Z,7.99
2018-04-27T00:41:11.360Z,7.99
2018-04-27T00:43:38.831Z,7.99
2018-04-27T00:46:06.351Z,7.98
2018-04-27T00:48:33.829Z,7.94
2018-04-27T00:51:01.375Z,7.88
2018-04-27T00:53:28.876Z,7.82
2018-04-27T00:55:56.386Z,7.74
2018-04-27T00:58:23.895Z,7.69
2018-04-27T01:00:51.508Z,7.67
2018-04-27T01:03:18.993Z,7.65
2018-04-27T01:05:46.508Z,7.59
2018-04-27T01:08:14.017Z,7.50
2018-04-27T01:10:41.490Z,7.46
2018-04-27T01:13:09.002Z,7.43
2018-04-27T01:15:36.508Z,7.38
2018-04-27T01:18:03.984Z,7.30
2018-04-27T01:20:31.457Z,7.25
2018-04-27T01:22:59.001Z,7.23
2018-04-27T01:25:26.472Z,7.21
2018-04-27T01:27:54.075Z,7.17
2018-04-27T01:30:21.583Z,7.16
2018-04-27T01:32:49.097Z,7.16
2018-04-27T01:35:16.588Z,7.17
2018-04-27T01:37:44.126Z,7.19
2018-04-27T01:40:11.621Z,7.15
2018-04-27T01:42:39.101Z,7.13
2018-04-27T01:45:06.588Z,7.04
2018-04-27T01:47:34.062Z,6.98
2018-04-27T01:50:01.575Z,6.99
2018-04-27T01:52:29.054Z,6.96
2018-04-27T01:54:56.561Z,6.92
2018-04-27T01:57:24.115Z,6.87
2018-04-27T01:59:51.703Z,6.80
2018-04-27T02:02:19.176Z,6.77
2018-04-27T02:04:46.693Z,6.72
2018-04-27T02:07:14.283Z,6.67
2018-04-27T02:09:41.797Z,6.61
2018-04-27T02:12:09.349Z,6.56
2018-04-27T02:14:36.826Z,6.50
2018-04-27T02:17:04.307Z,6.44
2018-04-27T02:19:31.783Z,6.39
2018-04-27T02:21:59.256Z,6.31
2018-04-27T02:24:26.765Z,6.28
2018-04-27T02:26:54.339Z,6.25
2018-04-27T02:29:21.871Z,6.23
2018-04-27T02:31:49.356Z,6.22
2018-04-27T02:34:16.831Z,6.23
2018-04-27T02:36:44.344Z,6.23
2018-04-27T02:39:11.818Z,6.23
2018-04-27T02:41:39.270Z,6.21
2018-04-27T02:44:06.849Z,6.16
2018-04-27T02:46:34.376Z,6.14
2018-04-27T02:49:01.854Z,6.11
2018-04-27T02:51:29.329Z,6.08
2018-04-27T02:53:56.788Z,6.06
2018-04-27T02:56:24.235Z,6.06
2018-04-27T02:58:51.968Z,6.06
2018-04-27T03:01:19.454Z,6.05
2018-04-27T03:03:46.948Z,6.07
2018-04-27T03:06:14.416Z,6.08
2018-04-27T03:08:41.855Z,6.07
2018-04-27T03:11:09.329Z,6.10
2018-04-27T03:13:36.786Z,6.10
2018-04-27T03:16:04.257Z,6.08
2018-04-27T03:18:31.759Z,6.09
2018-04-27T03:20:59.238Z,6.09
2018-04-27T03:23:26.679Z,6.05
2018-04-27T03:25:54.135Z,6.04
2018-04-27T03:28:21.575Z,5.99
2018-04-27T03:30:49.051Z,5.96
2018-04-27T03:33:16.496Z,5.97
2018-04-27T03:35:43.977Z,5.97
2018-04-27T03:38:11.455Z,5.96
2018-04-27T03:40:38.952Z,5.93
2018-04-27T03:43:06.405Z,5.93
2018-04-27T03:45:33.855Z,5.95
2018-04-27T03:48:01.328Z,5.93
2018-04-27T03:50:28.787Z,5.91
2018-04-27T03:52:56.303Z,5.92
2018-04-27T03:55:23.759Z,5.90
2018-04-27T03:57:51.278Z,5.89
2018-04-27T04:00:30.598Z,5.90
2018-04-27T04:03:09.784Z,5.92
2018-04-27T04:05:37.253Z,5.94
2018-04-27T04:08:04.703Z,5.97
2018-04-27T04:10:32.157Z,6.00
2018-04-27T04:12:59.596Z,6.05
2018-04-27T04:15:27.051Z,6.09
2018-04-27T04:17:54.512Z,6.13
2018-04-27T04:20:21.994Z,6.21
2018-04-27T04:22:49.509Z,6.29
2018-04-27T04:25:16.995Z,6.39
2018-04-27T04:27:44.514Z,6.56
2018-04-27T04:30:12.009Z,6.73
2018-04-27T04:32:39.513Z,6.90
2018-04-27T04:35:07.051Z,7.15
2018-04-27T04:37:34.555Z,7.38
2018-04-27T04:40:02.040Z,7.79
2018-04-27T04:42:29.493Z,8.56
2018-04-27T04:44:56.979Z,9.38
2018-04-27T04:47:24.556Z,9.62
2018-04-27T04:49:52.015Z,8.90
2018-04-27T04:52:19.461Z,8.37
2018-04-27T04:54:46.973Z,7.98
2018-04-27T04:57:14.419Z,7.74
2018-04-27T04:59:41.886Z,7.54
2018-04-27T05:02:09.409Z,7.48
2018-04-27T05:04:36.896Z,7.38
2018-04-27T05:07:04.391Z,7.44
2018-04-27T05:09:31.883Z,7.51
2018-04-27T05:11:59.437Z,7.46
2018-04-27T05:14:26.999Z,7.50
2018-04-27T05:16:54.482Z,7.47
2018-04-27T05:19:21.984Z,7.57
2018-04-27T05:21:49.563Z,7.61
2018-04-27T05:24:17.067Z,7.67
2018-04-27T05:26:44.569Z,7.93
2018-04-27T05:29:12.115Z,8.07
2018-04-27T05:31:39.605Z,8.25
2018-04-27T05:34:07.136Z,8.28
2018-04-27T05:36:34.645Z,8.37
2018-04-27T05:39:02.147Z,8.55
2018-04-27T05:41:29.600Z,8.75
2018-04-27T05:43:57.121Z,8.90
2018-04-27T05:46:24.601Z,8.99
2018-04-27T05:48:52.056Z,9.01
2018-04-27T05:51:19.519Z,9.09
2018-04-27T05:53:46.997Z,9.15
2018-04-27T05:56:14.581Z,9.21
2018-04-27T05:58:42.140Z,9.26
2018-04-27T06:01:09.598Z,9.34
2018-04-27T06:03:49.024Z,9.42
2018-04-27T06:06:16.471Z,9.59
2018-04-27T06:08:43.946Z,9.71
2018-04-27T06:11:11.489Z,9.84
2018-04-27T06:13:38.935Z,9.96
2018-04-27T06:16:06.556Z,10.07
2018-04-27T06:18:34.056Z,10.18
2018-04-27T06:21:01.560Z,10.24
2018-04-27T06:23:29.129Z,10.36
2018-04-27T06:25:56.624Z,10.52
2018-04-27T06:28:24.112Z,10.60
2018-04-27T06:30:51.601Z,10.74
2018-04-27T06:33:19.098Z,10.91
2018-04-27T06:35:46.570Z,11.04
2018-04-27T06:38:14.016Z,11.05
2018-04-27T06:40:41.620Z,10.95
2018-04-27T06:43:09.136Z,10.91
2018-04-27T06:45:36.637Z,10.93
2018-04-27T06:48:04.160Z,10.97
2018-04-27T06:50:31.611Z,11.12
2018-04-27T06:52:59.183Z,11.28
2018-04-27T06:55:26.627Z,11.56
2018-04-27T06:57:54.077Z,11.73
2018-04-27T07:00:21.653Z,11.71
2018-04-27T07:02:49.110Z,11.88
2018-04-27T07:05:16.633Z,12.02
2018-04-27T07:07:44.160Z,12.06
2018-04-27T07:10:11.709Z,12.13
2018-04-27T07:12:39.174Z,12.26
2018-04-27T07:15:06.691Z,12.31
2018-04-27T07:17:34.140Z,12.31
2018-04-27T07:20:01.594Z,12.30
2018-04-27T07:22:29.084Z,12.35
2018-04-27T07:24:56.587Z,12.56
2018-04-27T07:27:24.088Z,12.71
2018-04-27T07:29:51.556Z,12.73
2018-04-27T07:32:19.108Z,12.73
2018-04-27T07:34:46.600Z,12.85
2018-04-27T07:37:14.110Z,12.94
2018-04-27T07:39:41.697Z,12.98
2018-04-27T07:42:09.144Z,13.05
2018-04-27T07:44:36.724Z,13.08
2018-04-27T07:47:04.216Z,13.13
2018-04-27T07:49:31.671Z,13.15
2018-04-27T07:51:59.197Z,13.04
2018-04-27T07:54:26.647Z,13.04
2018-04-27T07:56:54.161Z,13.05
2018-04-27T07:59:21.628Z,13.08
2018-04-27T08:01:49.071Z,13.23
2018-04-27T08:04:16.567Z,13.23
2018-04-27T08:06:44.140Z,13.31
2018-04-27T08:09:11.629Z,13.43
2018-04-27T08:11:39.181Z,13.64
2018-04-27T08:14:06.639Z,13.78
2018-04-27T08:16:34.084Z,13.85
2018-04-27T08:19:01.556Z,13.97
2018-04-27T08:21:29.042Z,13.96
2018-04-27T08:23:56.531Z,13.99
2018-04-27T08:26:26.716Z,14.00
2018-04-27T08:28:54.172Z,14.11
2018-04-27T08:31:21.673Z,14.25
2018-04-27T08:33:49.162Z,14.16
2018-04-27T08:36:16.737Z,14.09
2018-04-27T08:38:44.165Z,14.04
2018-04-27T08:41:11.650Z,14.13
2018-04-27T08:43:39.091Z,14.09
2018-04-27T08:46:06.537Z,14.20
2018-04-27T08:48:34.028Z,14.34
2018-04-27T08:51:01.475Z,14.32
2018-04-27T08:53:28.928Z,14.23
2018-04-27T08:55:56.416Z,14.31
2018-04-27T08:58:23.905Z,14.43
2018-04-27T09:00:51.493Z,14.61
2018-04-27T09:03:18.954Z,14.63
2018-04-27T09:05:46.443Z,14.65
2018-04-27T09:08:13.921Z,14.67
2018-04-27T09:10:41.371Z,14.74
2018-04-27T09:13:08.825Z,14.61
2018-04-27T09:15:36.457Z,14.73
2018-04-27T09:18:03.961Z,14.90
2018-04-27T09:20:31.485Z,14.91
2018-04-27T09:22:58.967Z,15.03
2018-04-27T09:25:26.560Z,15.14
2018-04-27T09:27:54.081Z,15.09
2018-04-27T09:30:21.555Z,14.99
2018-04-27T09:32:49.005Z,15.25
2018-04-27T09:35:16.557Z,15.43
2018-04-27T09:37:44.011Z,15.57
2018-04-27T09:40:11.504Z,15.48
2018-04-27T09:42:39.014Z,15.53
2018-04-27T09:45:06.473Z,15.60
2018-04-27T09:47:33.953Z,15.60
2018-04-27T09:50:01.457Z,15.49
2018-04-27T09:52:28.912Z,15.67
2018-04-27T09:54:56.426Z,15.77
2018-04-27T09:57:23.898Z,15.71
2018-04-27T09:59:51.403Z,15.66
2018-04-27T10:02:19.206Z,15.59
2018-04-27T10:04:46.684Z,15.61
2018-04-27T10:07:14.180Z,15.52
2018-04-27T10:09:41.648Z,15.60
2018-04-27T10:12:09.154Z,15.79
2018-04-27T10:14:36.607Z,15.90
2018-04-27T10:17:04.093Z,16.15
2018-04-27T10:19:31.651Z,16.26
2018-04-27T10:21:59.129Z,16.23
2018-04-27T10:24:26.581Z,15.95
2018-04-27T10:26:54.027Z,15.98
2018-04-27T10:29:21.500Z,16.05
2018-04-27T10:31:48.995Z,16.10
2018-04-27T10:34:16.554Z,16.23
2018-04-27T10:36:44.008Z,16.23
2018-04-27T10:39:11.482Z,16.51
2018-04-27T10:41:39.072Z,16.42
2018-04-27T10:44:06.575Z,16.09
2018-04-27T10:46:34.033Z,16.24
2018-04-27T10:49:01.545Z,16.20
2018-04-27T10:51:29.075Z,16.04
2018-04-27T10:53:56.583Z,16.11
2018-04-27T10:56:24.082Z,16.41
2018-04-27T10:58:51.552Z,16.61
2018-04-27T11:01:19.064Z,16.44
2018-04-27T11:03:46.537Z,16.23
2018-04-27T11:06:14.016Z,16.37
2018-04-27T11:08:41.509Z,16.50
2018-04-27T11:11:09.006Z,16.30
2018-04-27T11:13:36.494Z,16.20
2018-04-27T11:16:03.947Z,16.42
2018-04-27T11:18:31.406Z,16.61
2018-04-27T11:20:58.897Z,16.68
2018-04-27T11:23:26.428Z,16.97
2018-04-27T11:25:54.036Z,16.91
2018-04-27T11:28:21.534Z,16.92
2018-04-27T11:30:48.983Z,17.21
2018-04-27T11:33:16.555Z,17.23
2018-04-27T11:35:44.143Z,17.13
2018-04-27T11:38:11.626Z,17.21
2018-04-27T11:40:39.115Z,17.27
2018-04-27T11:43:06.613Z,17.21
2018-04-27T11:45:34.063Z,17.45
2018-04-27T11:48:01.585Z,17.44
2018-04-27T11:50:29.073Z,17.45
2018-04-27T11:52:56.559Z,17.40
2018-04-27T11:55:24.079Z,17.46
2018-04-27T11:57:51.565Z,17.51
2018-04-27T12:00:21.599Z,17.69
2018-04-27T12:02:49.123Z,17.32
2018-04-27T12:05:16.604Z,17.30
2018-04-27T12:07:44.070Z,17.33
2018-04-27T12:10:11.556Z,17.41
2018-04-27T12:12:39.037Z,17.41
2018-04-27T12:15:06.498Z,17.62
2018-04-27T12:17:33.996Z,17.81
2018-04-27T12:20:01.420Z,17.91
2018-04-27T12:22:28.891Z,18.18
2018-04-27T12:24:56.331Z,18.19
2018-04-27T12:27:23.812Z,18.19
2018-04-27T12:29:51.284Z,18.08
2018-04-27T12:32:18.777Z,17.97
2018-04-27T12:34:46.297Z,17.91
2018-04-27T12:37:13.742Z,17.50
2018-04-27T12:39:41.188Z,17.50
2018-04-27T12:42:08.718Z,17.57
2018-04-27T12:44:36.243Z,17.47
2018-04-27T12:47:03.685Z,17.60
2018-04-27T12:49:31.196Z,17.81
2018-04-27T12:51:58.691Z,17.68
2018-04-27T12:54:26.177Z,17.70
2018-04-27T12:56:53.649Z,17.97
2018-04-27T12:59:21.140Z,18.20
2018-04-27T13:01:48.721Z,18.50
2018-04-27T13:04:16.252Z,18.62
2018-04-27T13:06:43.696Z,18.73
2018-04-27T13:09:11.199Z,18.83
2018-04-27T13:11:38.683Z,19.01
2018-04-27T13:14:06.131Z,18.75
2018-04-27T13:16:33.683Z,18.64
2018-04-27T13:19:01.173Z,18.68
2018-04-27T13:21:28.707Z,18.62
2018-04-27T13:23:56.215Z,18.58
2018-04-27T13:26:23.742Z,18.63
2018-04-27T13:28:51.159Z,18.53
2018-04-27T13:31:18.631Z,18.49
2018-04-27T13:33:46.080Z,18.59
2018-04-27T13:36:13.566Z,18.57
2018-04-27T13:38:41.078Z,18.69
2018-04-27T13:41:08.561Z,18.66
2018-04-27T13:43:36.011Z,18.55
2018-04-27T13:46:03.552Z,18.35
2018-04-27T13:48:31.006Z,17.95
2018-04-27T13:50:58.475Z,17.63
2018-04-27T13:53:25.997Z,17.55
2018-04-27T13:55:53.451Z,17.65
2018-04-27T13:58:20.929Z,17.71
2018-04-27T14:00:48.388Z,17.80
2018-04-27T14:03:15.852Z,17.67
2018-04-27T14:05:43.308Z,17.77
2018-04-27T14:08:10.749Z,18.01
2018-04-27T14:10:38.262Z,18.22
2018-04-27T14:13:05.833Z,18.33
2018-04-27T14:15:33.370Z,18.17
2018-04-27T14:18:00.861Z,18.16
2018-04-27T14:20:28.308Z,18.01
2018-04-27T14:22:55.841Z,17.86
2018-04-27T14:25:23.368Z,17.95
2018-04-27T14:27:50.841Z,17.95
2018-04-27T14:30:18.325Z,17.86
2018-04-27T14:32:45.802Z,17.88
2018-04-27T14:35:13.361Z,17.92
2018-04-27T14:37:40.914Z,17.63
2018-04-27T14:40:08.447Z,17.47
2018-04-27T14:42:35.925Z,17.49
2018-04-27T14:45:03.397Z,17.57
2018-04-27T14:47:30.851Z,17.90
2018-04-27T14:49:58.302Z,17.95
2018-04-27T14:52:25.805Z,17.87
2018-04-27T14:54:53.264Z,17.89
2018-04-27T14:57:20.731Z,17.87
2018-04-27T14:59:48.308Z,17.86
2018-04-27T15:02:15.789Z,17.97
2018-04-27T15:04:43.246Z,18.11
2018-04-27T15:07:10.716Z,18.07
2018-04-27T15:09:38.224Z,18.14
2018-04-27T15:12:05.807Z,18.12
2018-04-27T15:14:33.262Z,18.06
2018-04-27T15:17:00.723Z,18.14
2018-04-27T15:19:28.164Z,18.39
2018-04-27T15:21:55.652Z,18.97
2018-04-27T15:24:23.156Z,19.33
2018-04-27T15:26:50.665Z,19.65
2018-04-27T15:29:18.147Z,20.32
2018-04-27T15:31:45.630Z,20.59
2018-04-27T15:34:13.121Z,20.81
2018-04-27T15:36:40.587Z,20.88
2018-04-27T15:39:08.028Z,21.15
2018-04-27T15:41:35.563Z,21.93
2018-04-27T15:44:03.123Z,21.44
2018-04-27T15:46:30.590Z,20.67
2018-04-27T15:48:58.070Z,20.20
2018-04-27T15:51:25.559Z,19.73
2018-04-27T15:53:53.057Z,19.21
2018-04-27T15:56:20.537Z,19.01
2018-04-27T15:58:48.007Z,19.22
2018-04-27T16:01:15.496Z,19.76
2018-04-27T16:03:43.803Z,20.29
2018-04-27T16:06:11.264Z,20.62
2018-04-27T16:08:38.732Z,20.72
2018-04-27T16:11:06.260Z,20.48
2018-04-27T16:13:51.514Z,19.94
2018-04-27T16:16:19.631Z,19.31
2018-04-27T16:18:47.115Z,19.45
2018-04-27T16:21:14.578Z,19.25
2018-04-27T16:23:42.964Z,18.60
2018-04-27T16:26:10.465Z,18.08
2018-04-27T16:28:37.952Z,17.70
2018-04-27T16:31:05.420Z,17.55
2018-04-27T16:33:32.867Z,17.50
2018-04-27T16:36:00.446Z,17.45
2018-04-27T16:38:27.935Z,17.63
2018-04-27T16:40:55.487Z,17.78
2018-04-27T16:43:22.953Z,17.78
2018-04-27T16:45:50.401Z,17.63
2018-04-27T16:48:17.847Z,17.45
2018-04-27T16:50:45.344Z,17.24
2018-04-27T16:53:12.830Z,17.17
2018-04-27T16:55:40.363Z,17.17
2018-04-27T16:58:07.852Z,17.00
2018-04-27T17:00:35.311Z,16.88
2018-04-27T17:03:02.800Z,16.82
2018-04-27T17:05:30.458Z,16.80
2018-04-27T17:07:57.934Z,16.77
2018-04-27T17:10:25.441Z,16.80
2018-04-27T17:12:52.903Z,16.75
2018-04-27T17:15:20.390Z,16.66
2018-04-27T17:17:48.046Z,16.62
2018-04-27T17:20:15.535Z,16.58
2018-04-27T17:22:43.038Z,16.51
2018-04-27T17:25:10.579Z,16.52
2018-04-27T17:27:38.053Z,16.59
2018-04-27T17:30:05.574Z,16.56
2018-04-27T17:32:33.089Z,16.48
2018-04-27T17:35:00.579Z,16.40
2018-04-27T17:37:28.096Z,16.26
2018-04-27T17:39:55.605Z,16.11
2018-04-27T17:42:23.091Z,15.96
2018-04-27T17:44:50.547Z,15.89
2018-04-27T17:47:18.029Z,15.88
2018-04-27T17:49:45.507Z,15.85
2018-04-27T17:52:12.985Z,15.84
2018-04-27T17:54:40.512Z,15.74
2018-04-27T17:57:07.963Z,15.69
2018-04-27T17:59:35.444Z,15.64
2018-04-27T18:02:02.937Z,15.59
2018-04-27T18:04:30.382Z,15.53
2018-04-27T18:06:57.896Z,15.45
2018-04-27T18:09:25.406Z,15.43
2018-04-27T18:11:52.939Z,15.38
2018-04-27T18:14:20.416Z,15.36
2018-04-27T18:16:47.988Z,15.29
2018-04-27T18:19:15.450Z,15.23
2018-04-27T18:21:42.892Z,15.20
2018-04-27T18:24:10.485Z,15.19
2018-04-27T18:26:38.032Z,15.26
2018-04-27T18:29:05.504Z,15.19
2018-04-27T18:31:32.993Z,15.16
2018-04-27T18:34:00.453Z,15.10
2018-04-27T18:36:27.959Z,15.07
2018-04-27T18:38:55.437Z,15.00
2018-04-27T18:41:22.887Z,14.96
2018-04-27T18:43:50.359Z,14.85
2018-04-27T18:46:18.203Z,14.74
2018-04-27T18:48:45.694Z,14.69
2018-04-27T18:51:13.882Z,14.62
2018-04-27T18:53:41.448Z,14.56
2018-04-27T18:56:08.892Z,14.49
2018-04-27T18:58:36.391Z,14.43
2018-04-27T19:01:03.872Z,14.37
2018-04-27T19:03:31.341Z,14.32
2018-04-27T19:05:58.819Z,14.26
2018-04-27T19:08:26.268Z,14.21
2018-04-27T19:10:53.776Z,14.16
2018-04-27T19:13:21.254Z,14.11
2018-04-27T19:15:48.704Z,14.06
2018-04-27T19:18:18.847Z,14.01
2018-04-27T19:20:46.666Z,13.94
2018-04-27T19:23:16.772Z,13.89
2018-04-27T19:25:47.748Z,13.85
2018-04-27T19:28:15.272Z,13.79
2018-04-27T19:30:42.783Z,13.74
2018-04-27T19:33:10.978Z,13.73
2018-04-27T19:35:38.464Z,13.66
2018-04-27T19:38:06.016Z,13.62
2018-04-27T19:40:34.250Z,13.62
2018-04-27T19:43:01.853Z,13.58
2018-04-27T19:45:29.400Z,13.57
2018-04-27T19:47:56.888Z,13.51
2018-04-27T19:50:24.406Z,13.46
2018-04-27T19:52:51.941Z,13.34
2018-04-27T19:55:19.432Z,13.25
2018-04-27T19:57:46.941Z,13.27
2018-04-27T20:00:14.441Z,13.28
2018-04-27T20:02:41.974Z,13.30
2018-04-27T20:05:12.857Z,13.25
2018-04-27T20:07:40.362Z,13.22
2018-04-27T20:10:12.608Z,13.17
2018-04-27T20:12:40.098Z,13.17
2018-04-27T20:15:07.551Z,13.12
2018-04-27T20:17:37.861Z,13.04
2018-04-27T20:20:06.937Z,12.94
2018-04-27T20:22:35.235Z,12.85
2018-04-27T20:25:04.558Z,12.81
2018-04-27T20:27:35.495Z,12.79
2018-04-27T20:30:12.813Z,12.71
2018-04-27T20:32:40.262Z,12.70
2018-04-27T20:35:15.335Z,12.64
2018-04-27T20:37:42.855Z,12.66
2018-04-27T20:40:15.820Z,12.48
2018-04-27T20:42:43.279Z,12.38
2018-04-27T20:45:10.839Z,12.34
2018-04-27T20:47:38.356Z,12.32
2018-04-27T20:50:05.944Z,12.31
2018-04-27T20:52:38.988Z,12.30
2018-04-27T20:55:07.974Z,12.28
2018-04-27T20:57:35.501Z,12.17
2018-04-27T21:00:03.060Z,12.11
2018-04-27T21:02:30.479Z,12.08
2018-04-27T21:04:58.016Z,12.11
2018-04-27T21:07:25.477Z,12.13
2018-04-27T21:09:52.977Z,12.06
2018-04-27T21:12:20.590Z,12.02
2018-04-27T21:14:48.099Z,11.99
2018-04-27T21:17:15.564Z,11.91
2018-04-27T21:19:43.033Z,11.84
2018-04-27T21:22:11.430Z,11.73
2018-04-27T21:24:38.928Z,11.67
2018-04-27T21:27:06.504Z,11.64
2018-04-27T21:29:36.553Z,11.60
2018-04-27T21:32:04.013Z,11.55
2018-04-27T21:34:31.522Z,11.53
2018-04-27T21:36:58.999Z,11.54
2018-04-27T21:39:36.296Z,11.55
2018-04-27T21:42:05.549Z,11.57
2018-04-27T21:44:47.941Z,11.59
2018-04-27T21:47:34.960Z,11.60
2018-04-27T21:50:03.188Z,11.59
2018-04-27T21:52:32.636Z,11.55
2018-04-27T21:55:00.141Z,11.49
2018-04-27T21:57:29.250Z,11.49
2018-04-27T22:00:05.345Z,11.44
2018-04-27T22:02:34.297Z,11.41
2018-04-27T22:08:21.223Z,11.42
2018-04-27T22:10:49.527Z,11.37
2018-04-27T22:13:19.520Z,11.30
2018-04-27T22:15:47.108Z,11.29
2018-04-27T22:18:14.668Z,11.26
2018-04-27T22:20:48.013Z,11.24
2018-04-27T22:23:15.505Z,11.16
2018-04-27T22:25:46.610Z,11.11
2018-04-27T22:28:15.024Z,11.05
2018-04-27T22:30:57.448Z,11.04
2018-04-27T22:33:24.983Z,10.98
2018-04-27T22:35:55.091Z,10.92
2018-04-27T22:41:34.503Z,10.87
2018-04-27T22:44:01.998Z,10.87
2018-04-27T22:46:29.575Z,10.85
2018-04-27T22:48:59.645Z,10.83
2018-04-27T22:51:42.952Z,10.83
2018-04-27T22:57:18.071Z,10.84
2018-04-27T22:59:45.511Z,10.86
2018-04-27T23:02:14.945Z,10.86
2018-04-27T23:04:42.532Z,10.94
2018-04-27T23:10:11.959Z,11.02
2018-04-27T23:12:42.837Z,11.01
2018-04-27T23:15:10.292Z,11.03
2018-04-27T23:17:37.906Z,10.95
2018-04-27T23:20:25.904Z,10.88
2018-04-27T23:22:56.908Z,10.82
2018-04-27T23:25:24.365Z,10.76
2018-04-27T23:27:51.817Z,10.74
2018-04-27T23:30:19.300Z,10.70
2018-04-27T23:32:46.752Z,10.67
2018-04-27T23:35:14.196Z,10.63
2018-04-27T23:37:41.699Z,10.59
2018-04-27T23:40:09.313Z,10.56
2018-04-27T23:42:36.774Z,10.57
2018-04-27T23:45:04.235Z,10.58
2018-04-27T23:47:31.781Z,10.57
2018-04-27T23:49:59.256Z,10.53
2018-04-27T23:52:26.737Z,10.50
2018-04-27T23:54:54.254Z,10.45
2018-04-27T23:57:23.135Z,10.38
2018-04-27T23:59:53.085Z,10.33
